Time;durP1;ratioP1;P1;durP2;ratioP2;P2;SDS_P1;SDS_P2;PMS_P1;PMS_P2;Temp;Humidity;BMP_temperature;BMP_pressure;BME280_temperature;BME280_humidity;BME280_pressure;Samples;Min_cycle;Max_cycle;Signal;HPM_P1;HPM_P2
2023/05/11 00:01:47;;;;;;;9.88;2.40;;;;;;;15.55;70.22;99719.97;4937249;28;20050;-94
2023/05/11 00:04:14;;;;;;;5.38;2.20;;;;;;;15.55;70.20;99727.97;4959441;28;20470;-95
2023/05/11 00:06:41;;;;;;;7.88;1.88;;;;;;;15.55;69.90;99725.31;4936982;28;20066;-95
2023/05/11 00:09:10;;;;;;;4.20;2.10;;;;;;;15.54;70.12;99726.28;4938628;28;20051;-94
2023/05/11 00:11:37;;;;;;;4.40;2.78;;;;;;;15.53;70.22;99721.97;4943039;28;20059;-95
2023/05/11 00:14:03;;;;;;;5.60;2.10;;;;;;;15.54;70.31;99720.94;4927135;28;20047;-94
2023/05/11 00:16:30;;;;;;;2.80;1.80;;;;;;;15.48;70.75;99719.78;4940767;28;20043;-95
2023/05/11 00:18:57;;;;;;;5.85;1.77;;;;;;;15.49;70.60;99718.78;4922870;28;20047;-94
2023/05/11 00:21:25;;;;;;;2.78;1.80;;;;;;;15.46;70.83;99726.31;4938808;28;20051;-95
2023/05/11 00:23:52;;;;;;;7.72;2.00;;;;;;;15.47;70.87;99722.63;4937799;28;20039;-95
2023/05/11 00:26:19;;;;;;;3.63;1.90;;;;;;;15.46;70.86;99724.47;4938199;28;20107;-95
2023/05/11 00:28:47;;;;;;;7.40;2.28;;;;;;;15.50;70.72;99730.34;4932704;28;20130;-95
2023/05/11 00:31:15;;;;;;;5.40;1.98;;;;;;;15.45;70.87;99725.50;4938836;28;20050;-93
2023/05/11 00:33:42;;;;;;;3.55;2.05;;;;;;;15.47;70.87;99727.97;4954815;28;20050;-94
2023/05/11 00:36:09;;;;;;;3.83;2.38;;;;;;;15.46;70.64;99720.97;4920649;28;20411;-95
2023/05/11 00:38:39;;;;;;;5.60;1.80;;;;;;;15.46;70.52;99723.63;4940568;28;20048;-94
2023/05/11 00:41:07;;;;;;;4.40;2.42;;;;;;;15.45;70.72;99725.50;4935860;28;20052;-96
2023/05/11 00:43:34;;;;;;;3.60;2.38;;;;;;;15.42;71.03;99715.13;4952951;28;20047;-94
2023/05/11 00:46:02;;;;;;;8.55;2.45;;;;;;;15.39;70.46;99712.78;4958091;28;20078;-94
2023/05/11 00:48:29;;;;;;;4.43;2.10;;;;;;;15.38;70.58;99716.47;4924947;28;20081;-94
2023/05/11 00:50:58;;;;;;;6.00;2.40;;;;;;;15.39;71.10;99715.44;4931847;28;20043;-95
2023/05/11 00:53:25;;;;;;;10.88;3.00;;;;;;;15.36;70.82;99710.44;4939632;28;20039;-95
2023/05/11 00:55:52;;;;;;;7.70;2.45;;;;;;;15.35;70.51;99716.81;4963927;28;20050;-94
2023/05/11 00:58:19;;;;;;;10.27;2.55;;;;;;;15.28;70.55;99710.47;4923630;28;20102;-95
2023/05/11 01:00:46;;;;;;;11.02;2.65;;;;;;;15.27;70.57;99711.47;4958114;28;20570;-94
2023/05/11 01:03:14;;;;;;;15.38;2.45;;;;;;;15.24;71.02;99712.66;4939948;28;20364;-93
2023/05/11 01:05:47;;;;;;;3.78;2.30;;;;;;;15.23;71.64;99715.47;4920454;28;20043;-94
2023/05/11 01:08:17;;;;;;;4.97;2.40;;;;;;;15.26;71.68;99724.00;4940663;28;20073;-95
2023/05/11 01:10:48;;;;;;;5.13;2.13;;;;;;;15.25;72.15;99727.69;4927102;28;20097;-93
2023/05/11 01:13:21;;;;;;;5.90;2.28;;;;;;;15.22;72.01;99717.31;4909800;28;20043;-93
2023/05/11 01:15:51;;;;;;;4.95;2.15;;;;;;;15.23;71.53;99718.97;4958371;28;20049;-94
2023/05/11 01:18:36;;;;;;;10.70;2.53;;;;;;;15.16;72.04;99713.50;4926244;28;20135;-94
2023/05/11 01:21:08;;;;;;;8.07;2.35;;;;;;;15.21;71.75;99715.63;4948208;28;20051;-95
2023/05/11 01:23:59;;;;;;;6.03;2.10;;;;;;;15.10;72.52;99716.81;4941183;28;20047;-95
2023/05/11 01:26:46;;;;;;;9.30;2.70;;;;;;;15.14;72.35;99712.81;4952476;28;20048;-94
2023/05/11 01:29:24;;;;;;;6.10;2.10;;;;;;;15.14;72.06;99714.66;4933193;28;20054;-94
2023/05/11 01:31:53;;;;;;;6.85;2.78;;;;;;;15.18;72.00;99716.81;4972743;28;20393;-94
2023/05/11 01:34:25;;;;;;;8.18;2.17;;;;;;;15.15;71.85;99719.00;4925276;28;20051;-95
2023/05/11 01:36:57;;;;;;;7.20;2.40;;;;;;;15.13;72.22;99713.81;4936822;28;20372;-94
2023/05/11 01:39:31;;;;;;;8.43;2.38;;;;;;;15.08;72.54;99709.97;4939186;28;20051;-94
2023/05/11 01:42:05;;;;;;;7.15;2.83;;;;;;;15.12;72.23;99722.84;4939517;28;20062;-94
2023/05/11 01:44:33;;;;;;;2.30;2.10;;;;;;;15.15;72.03;99717.16;4961126;28;20046;-94
2023/05/11 01:47:03;;;;;;;2.67;1.90;;;;;;;15.13;72.49;99715.66;4913752;28;20075;-95
2023/05/11 01:49:32;;;;;;;4.20;2.15;;;;;;;15.09;72.35;99717.84;4938648;28;20078;-95
2023/05/11 01:52:01;;;;;;;5.50;2.20;;;;;;;15.09;72.41;99717.84;4941445;28;20050;-95
2023/05/11 01:54:30;;;;;;;3.75;1.98;;;;;;;15.11;72.06;99720.31;4926278;28;20048;-95
2023/05/11 01:56:59;;;;;;;7.90;2.10;;;;;;;15.05;72.26;99716.50;4939243;28;20054;-94
2023/05/11 01:59:26;;;;;;;8.85;2.67;;;;;;;15.07;71.82;99709.13;4941964;28;20046;-95
2023/05/11 02:01:53;;;;;;;3.75;2.50;;;;;;;15.06;71.68;99707.47;4929573;28;20053;-94
2023/05/11 02:04:21;;;;;;;6.55;2.22;;;;;;;15.04;71.95;99704.13;4957251;28;20047;-94
2023/05/11 02:06:48;;;;;;;5.93;2.15;;;;;;;15.05;72.22;99710.31;4937571;28;20373;-94
2023/05/11 02:09:16;;;;;;;3.53;2.03;;;;;;;15.03;72.45;99710.47;4942030;28;20089;-94
2023/05/11 02:11:45;;;;;;;5.38;2.65;;;;;;;15.02;72.38;99707.97;4941728;28;24948;-95
2023/05/11 02:14:16;;;;;;;4.43;2.22;;;;;;;15.00;72.32;99710.81;4939146;28;20051;-95
2023/05/11 02:16:45;;;;;;;9.95;2.03;;;;;;;15.02;72.55;99713.31;4942420;28;20467;-95
2023/05/11 02:19:13;;;;;;;7.80;2.30;;;;;;;14.99;72.57;99706.47;4931515;28;20057;-93
2023/05/11 02:21:40;;;;;;;6.20;2.00;;;;;;;15.01;72.30;99715.16;4953463;28;20047;-93
2023/05/11 02:24:08;;;;;;;9.23;2.00;;;;;;;14.98;72.24;99708.31;4952865;28;20047;-94
2023/05/11 02:26:36;;;;;;;8.07;2.15;;;;;;;14.99;72.41;99706.47;4940189;28;20051;-93
2023/05/11 02:29:02;;;;;;;8.10;2.28;;;;;;;14.96;72.43;99715.66;4921781;28;20078;-94
2023/05/11 02:31:31;;;;;;;6.95;2.28;;;;;;;14.93;72.28;99707.97;4953536;28;20070;-94
2023/05/11 02:34:05;;;;;;;6.55;2.25;;;;;;;14.89;72.43;99706.63;4940532;28;20398;-95
2023/05/11 02:36:33;;;;;;;7.20;2.85;;;;;;;14.95;72.28;99710.47;4957876;28;20098;-95
2023/05/11 02:39:06;;;;;;;4.55;2.25;;;;;;;14.92;72.02;99716.16;4951539;28;20137;-94
2023/05/11 02:41:38;;;;;;;8.25;4.05;;;;;;;14.86;71.83;99712.31;4920410;28;20504;-94
2023/05/11 02:44:07;;;;;;;5.25;2.90;;;;;;;14.87;71.93;99711.31;4913064;28;20136;-94
2023/05/11 02:46:35;;;;;;;9.30;2.90;;;;;;;14.87;72.11;99716.66;4919781;28;20043;-93
2023/05/11 02:49:06;;;;;;;7.03;2.17;;;;;;;14.82;71.96;99713.63;4953479;28;20058;-94
2023/05/11 02:51:35;;;;;;;5.10;2.25;;;;;;;14.85;71.59;99717.81;4940150;28;20039;-94
2023/05/11 02:54:05;;;;;;;5.68;2.50;;;;;;;14.84;71.85;99708.97;4938969;28;20509;-95
2023/05/11 02:56:35;;;;;;;;;;;;;;;14.65;73.21;99717.28;4955724;28;20423;-96
2023/05/11 02:59:03;;;;;;;3.53;2.00;;;;;;;14.77;72.23;99718.66;4943295;28;19923;-95
2023/05/11 03:01:30;;;;;;;5.57;2.60;;;;;;;14.83;72.17;99727.84;4947068;28;20423;-95
2023/05/11 03:03:57;;;;;;;6.03;2.47;;;;;;;14.82;72.09;99719.00;4928792;28;20039;-92
2023/05/11 03:06:26;;;;;;;5.10;2.75;;;;;;;14.80;72.14;99717.47;4908375;28;20065;-94
2023/05/11 03:08:53;;;;;;;8.60;2.70;;;;;;;14.79;72.44;99703.28;4941818;28;20047;-95
2023/05/11 03:11:21;;;;;;;9.68;3.85;;;;;;;14.77;72.29;99703.44;4905308;28;20047;-95
2023/05/11 03:13:49;;;;;;;5.40;2.33;;;;;;;14.76;72.48;99712.47;4950543;28;20051;-95
2023/05/11 03:16:17;;;;;;;3.75;2.30;;;;;;;14.76;72.15;99709.81;4939450;28;20067;-96
2023/05/11 03:18:48;;;;;;;9.75;2.17;;;;;;;14.71;72.30;99712.13;4929182;28;20122;-94
2023/05/11 03:21:20;;;;;;;7.00;2.10;;;;;;;14.69;72.21;99708.78;4934534;28;20047;-94
2023/05/11 03:23:47;;;;;;;5.22;2.08;;;;;;;14.69;72.34;99711.47;4957983;28;20040;-95
2023/05/11 03:26:16;;;;;;;11.00;2.50;;;;;;;14.71;72.95;99713.97;4954692;28;20131;-94
2023/05/11 03:28:45;;;;;;;4.78;2.45;;;;;;;14.71;72.78;99714.81;4935440;28;20070;-90
2023/05/11 03:31:11;;;;;;;7.00;2.20;;;;;;;14.67;72.61;99707.28;4931487;28;20040;-90
2023/05/11 03:33:38;;;;;;;6.25;2.60;;;;;;;14.68;72.51;99704.44;4917671;28;20071;-90
2023/05/11 03:36:09;;;;;;;5.65;2.95;;;;;;;14.63;72.80;99698.78;4919760;28;20078;-90
2023/05/11 03:38:37;;;;;;;4.57;2.63;;;;;;;14.63;73.05;99701.44;4931158;28;20058;-89
2023/05/11 03:41:06;;;;;;;7.38;2.35;;;;;;;14.61;72.91;99703.44;4949638;28;20517;-89
2023/05/11 03:43:36;;;;;;;9.50;2.33;;;;;;;14.64;72.73;99702.28;4947505;28;20130;-90
2023/05/11 03:46:04;;;;;;;12.57;2.63;;;;;;;14.61;72.61;99705.28;4956634;28;20062;-90
2023/05/11 03:48:31;;;;;;;6.55;2.65;;;;;;;14.52;72.75;99699.88;4918273;28;20069;-88
2023/05/11 03:50:58;;;;;;;6.55;2.33;;;;;;;14.49;72.90;99705.53;4904856;28;20134;-87
2023/05/11 03:53:25;;;;;;;5.03;2.63;;;;;;;14.50;73.22;99707.25;4950794;28;20094;-88
2023/05/11 03:55:53;;;;;;;4.15;2.60;;;;;;;14.48;73.17;99695.88;4941256;28;20043;-88
2023/05/11 03:58:22;;;;;;;4.05;2.72;;;;;;;14.50;73.01;99699.22;4925788;28;20050;-88
2023/05/11 04:00:49;;;;;;;6.40;2.50;;;;;;;14.52;73.12;99699.88;4952157;28;20080;-88
2023/05/11 04:03:16;;;;;;;3.90;2.25;;;;;;;14.53;73.42;99701.59;4956445;28;20055;-88
2023/05/11 04:05:43;;;;;;;4.13;2.10;;;;;;;14.52;73.66;99699.03;4915600;28;20393;-88
2023/05/11 04:08:11;;;;;;;10.63;3.05;;;;;;;14.52;73.74;99696.38;4954849;28;20117;-88
2023/05/11 04:10:38;;;;;;;6.07;2.53;;;;;;;14.53;73.71;99703.44;4907880;28;20143;-90
2023/05/11 04:13:05;;;;;;;8.15;2.40;;;;;;;14.53;73.82;99703.44;4964403;28;20623;-89
2023/05/11 04:15:32;;;;;;;7.45;2.80;;;;;;;14.54;73.93;99703.25;4940604;28;20134;-91
2023/05/11 04:17:58;;;;;;;6.47;2.90;;;;;;;14.54;73.95;99707.75;4923000;28;20058;-89
2023/05/11 04:20:26;;;;;;;9.13;4.57;;;;;;;14.56;74.07;99704.94;4948975;28;20402;-89
2023/05/11 04:22:53;;;;;;;12.38;3.25;;;;;;;14.55;74.11;99706.75;4929716;28;20047;-91
2023/05/11 04:25:20;;;;;;;9.68;3.72;;;;;;;14.54;74.18;99711.25;4920273;28;20150;-90
2023/05/11 04:27:47;;;;;;;6.65;2.60;;;;;;;14.56;74.11;99715.63;4931931;28;20055;-90
2023/05/11 04:30:14;;;;;;;4.95;2.78;;;;;;;14.53;74.19;99701.59;4951249;28;20047;-91
2023/05/11 04:32:41;;;;;;;4.57;2.72;;;;;;;14.53;74.05;99703.44;4935905;28;20095;-91
2023/05/11 04:35:08;;;;;;;3.85;2.72;;;;;;;14.52;74.36;99702.53;4919970;28;20074;-90
2023/05/11 04:37:37;;;;;;;10.73;3.15;;;;;;;14.51;74.21;99714.25;4949275;28;20054;-91
2023/05/11 04:40:06;;;;;;;6.05;2.70;;;;;;;14.51;74.21;99710.75;4936493;28;20046;-90
2023/05/11 04:42:38;;;;;;;9.75;4.00;;;;;;;14.47;74.41;99704.88;4935926;28;20055;-90
2023/05/11 04:45:09;;;;;;;10.23;3.30;;;;;;;14.48;74.47;99714.56;4955986;28;20483;-90
2023/05/11 04:47:36;;;;;;;10.82;3.30;;;;;;;14.52;74.52;99709.72;4940748;28;20051;-90
2023/05/11 04:50:04;;;;;;;9.07;2.97;;;;;;;14.51;74.89;99710.75;4941649;28;20588;-90
2023/05/11 04:52:33;;;;;;;4.20;2.92;;;;;;;14.53;75.12;99703.44;4952409;28;20066;-89
2023/05/11 04:55:01;;;;;;;8.57;2.65;;;;;;;14.55;74.93;99704.06;4933099;28;20049;-90
2023/05/11 04:57:28;;;;;;;14.13;3.20;;;;;;;14.54;75.18;99711.25;4926753;28;20467;-90
2023/05/11 04:59:55;;;;;;;7.22;2.92;;;;;;;14.56;75.30;99710.28;4955464;28;20040;-90
2023/05/11 05:02:22;;;;;;;11.90;3.70;;;;;;;14.52;75.33;99699.88;4952403;28;20054;-91
2023/05/11 05:04:49;;;;;;;7.45;3.85;;;;;;;14.53;75.23;99704.25;4940145;28;20054;-91
2023/05/11 05:07:16;;;;;;;11.07;3.13;;;;;;;14.54;74.91;99700.56;4946187;28;20045;-91
2023/05/11 05:09:43;;;;;;;4.50;2.72;;;;;;;14.54;74.63;99705.09;4923478;28;20043;-91
2023/05/11 05:12:13;;;;;;;7.65;3.35;;;;;;;14.49;74.43;99705.53;4939414;28;20044;-90
2023/05/11 05:14:39;;;;;;;6.00;2.67;;;;;;;14.50;74.97;99715.25;4946947;28;20067;-91
2023/05/11 05:17:06;;;;;;;4.22;2.67;;;;;;;14.49;75.21;99710.06;4936384;28;20525;-90
2023/05/11 05:19:33;;;;;;;8.45;2.97;;;;;;;14.46;75.20;99711.22;4956829;28;20043;-90
2023/05/11 05:22:00;;;;;;;5.47;2.88;;;;;;;14.50;75.00;99709.03;4946047;28;20058;-92
2023/05/11 05:24:29;;;;;;;13.15;3.00;;;;;;;14.48;75.00;99711.91;4935921;28;20131;-91
2023/05/11 05:26:56;;;;;;;9.55;3.50;;;;;;;14.52;74.96;99715.91;4935605;28;20050;-91
2023/05/11 05:29:23;;;;;;;24.80;4.93;;;;;;;14.52;75.24;99721.25;4940438;28;20098;-91
2023/05/11 05:31:50;;;;;;;9.00;3.05;;;;;;;14.51;75.34;99727.59;4948363;28;20081;-90
2023/05/11 05:34:18;;;;;;;16.25;3.85;;;;;;;14.54;75.41;99727.28;4923731;28;20118;-91
2023/05/11 05:36:45;;;;;;;11.52;3.60;;;;;;;14.54;75.45;99721.13;4917018;28;20050;-90
2023/05/11 05:39:12;;;;;;;9.57;3.03;;;;;;;14.54;75.63;99729.97;4956236;28;20054;-92
2023/05/11 05:41:41;;;;;;;10.05;4.70;;;;;;;14.58;75.33;99732.31;4925899;28;20035;-90
2023/05/11 05:44:09;;;;;;;8.30;3.25;;;;;;;14.54;75.59;99737.97;4952590;28;20046;-90
2023/05/11 05:46:36;;;;;;;5.43;3.08;;;;;;;14.55;75.50;99728.13;4953540;28;20490;-91
2023/05/11 05:49:04;;;;;;;6.45;3.70;;;;;;;14.54;75.49;99732.66;4936878;28;20137;-90
2023/05/11 05:51:31;;;;;;;7.57;3.47;;;;;;;14.59;75.36;99734.00;4920406;28;20124;-91
2023/05/11 05:53:58;;;;;;;9.05;3.60;;;;;;;14.60;75.73;99741.84;4940114;28;20062;-91
2023/05/11 05:56:25;;;;;;;7.22;3.25;;;;;;;14.57;75.94;99731.47;4938333;28;20117;-90
2023/05/11 05:58:52;;;;;;;8.98;3.30;;;;;;;14.64;76.20;99748.53;4931956;28;20075;-90
2023/05/11 06:01:20;;;;;;;9.38;3.70;;;;;;;14.63;76.30;99743.34;4934321;28;20126;-91
2023/05/11 06:03:50;;;;;;;7.53;3.63;;;;;;;14.63;75.71;99743.34;4905242;28;20110;-91
2023/05/11 06:06:17;;;;;;;6.70;3.88;;;;;;;14.63;75.87;99744.19;4953164;28;20051;-91
2023/05/11 06:08:44;;;;;;;11.52;4.13;;;;;;;14.64;75.71;99745.88;4941947;28;20043;-90
2023/05/11 06:11:11;;;;;;;9.18;4.10;;;;;;;14.61;76.05;99740.03;4922505;28;20046;-91
2023/05/11 06:13:38;;;;;;;8.73;3.55;;;;;;;14.64;75.78;99740.50;4937062;28;20051;-90
2023/05/11 06:16:05;;;;;;;7.85;3.50;;;;;;;14.64;76.04;99739.69;4955984;28;20134;-91
2023/05/11 06:18:33;;;;;;;6.57;4.35;;;;;;;14.67;75.54;99744.69;4973099;28;20185;-90
2023/05/11 06:21:02;;;;;;;8.15;3.85;;;;;;;14.68;75.72;99743.69;4951519;28;20058;-91
2023/05/11 06:23:30;;;;;;;8.05;3.75;;;;;;;14.67;75.58;99734.84;4976891;28;20054;-90
2023/05/11 06:25:57;;;;;;;8.68;4.20;;;;;;;14.71;75.23;99743.38;4924617;28;20354;-90
2023/05/11 06:28:26;;;;;;;7.10;3.83;;;;;;;14.71;75.25;99736.19;4968659;28;20070;-90
2023/05/11 06:30:58;;;;;;;9.00;4.03;;;;;;;14.75;75.22;99734.00;4946289;28;20074;-90
2023/05/11 06:33:27;;;;;;;7.57;4.30;;;;;;;14.76;75.39;99738.38;4939045;28;20066;-90
2023/05/11 06:35:54;;;;;;;7.63;3.78;;;;;;;14.78;75.28;99739.03;4952648;28;20304;-90
2023/05/11 06:38:22;;;;;;;6.28;3.85;;;;;;;14.80;75.10;99737.03;4973045;28;20492;-90
2023/05/11 06:40:52;;;;;;;8.63;3.60;;;;;;;14.75;74.44;99734.84;4936956;28;20085;-90
2023/05/11 06:43:19;;;;;;;10.63;4.45;;;;;;;14.81;75.01;99736.03;4933781;28;20130;-91
2023/05/11 06:45:47;;;;;;;7.50;4.13;;;;;;;14.84;74.92;99737.56;4949874;28;20090;-90
2023/05/11 06:48:14;;;;;;;7.88;4.22;;;;;;;14.84;74.72;99737.56;4921554;28;20051;-91
2023/05/11 06:50:41;;;;;;;10.43;4.70;;;;;;;14.82;74.16;99740.38;4919890;28;20035;-90
2023/05/11 06:53:11;;;;;;;12.45;4.45;;;;;;;14.82;73.65;99736.88;4954217;28;20495;-91
2023/05/11 06:55:38;;;;;;;9.63;4.00;;;;;;;14.85;73.90;99737.38;4935672;28;20514;-91
2023/05/11 06:58:05;;;;;;;9.20;4.43;;;;;;;14.86;73.77;99743.56;4950402;28;20467;-90
2023/05/11 07:00:32;;;;;;;9.73;4.40;;;;;;;14.83;73.54;99743.88;4935788;28;20086;-91
2023/05/11 07:02:59;;;;;;;13.50;4.43;;;;;;;14.84;73.44;99737.56;4945855;28;20098;-89
2023/05/11 07:05:26;;;;;;;11.13;5.18;;;;;;;14.84;73.15;99737.56;4944897;28;20047;-90
2023/05/11 07:07:53;;;;;;;8.13;5.32;;;;;;;14.87;73.44;99745.22;4954193;28;20777;-90
2023/05/11 07:10:20;;;;;;;6.70;4.00;;;;;;;14.87;73.04;99748.72;4932481;28;20134;-90
2023/05/11 07:12:48;;;;;;;11.15;5.05;;;;;;;14.90;73.46;99744.88;4953274;28;20490;-91
2023/05/11 07:15:14;;;;;;;13.70;4.63;;;;;;;14.90;73.13;99748.41;4955159;28;20051;-90
2023/05/11 07:17:41;;;;;;;9.38;4.20;;;;;;;14.92;73.43;99749.06;4952764;28;20035;-90
2023/05/11 07:20:08;;;;;;;11.77;4.50;;;;;;;14.96;73.34;99746.91;4923473;28;20054;-91
2023/05/11 07:22:35;;;;;;;8.70;4.03;;;;;;;14.96;73.25;99750.44;4954711;28;20055;-90
2023/05/11 07:25:02;;;;;;;5.65;3.95;;;;;;;15.01;73.31;99746.41;4949677;28;20039;-91
2023/05/11 07:27:30;;;;;;;11.32;5.43;;;;;;;15.02;72.83;99756.94;4935887;28;20052;-90
2023/05/11 07:29:56;;;;;;;10.93;4.13;;;;;;;14.97;72.31;99754.75;4937068;28;20039;-90
2023/05/11 07:32:23;;;;;;;6.13;4.22;;;;;;;15.02;72.21;99753.44;4920689;28;20054;-90
2023/05/11 07:34:50;;;;;;;8.45;4.47;;;;;;;15.04;72.17;99757.63;4906953;28;20078;-91
2023/05/11 07:37:17;;;;;;;13.95;4.28;;;;;;;15.02;72.13;99756.09;4934597;28;20043;-90
2023/05/11 07:39:43;;;;;;;12.60;3.92;;;;;;;15.01;72.35;99749.94;4934722;28;20129;-90
2023/05/11 07:42:11;;;;;;;9.57;3.88;;;;;;;15.06;72.14;99749.41;4937852;28;20179;-90
2023/05/11 07:44:38;;;;;;;7.85;4.45;;;;;;;15.10;72.29;99753.44;4951792;28;20066;-90
2023/05/11 07:47:05;;;;;;;9.57;4.82;;;;;;;15.13;71.95;99753.91;4933065;28;20517;-89
2023/05/11 07:49:31;;;;;;;11.23;4.35;;;;;;;15.16;72.23;99755.44;4955403;28;20051;-90
2023/05/11 07:52:09;;;;;;;8.63;4.70;;;;;;;15.16;72.07;99747.41;4923117;28;23686;-91
2023/05/11 07:54:36;;;;;;;10.70;4.50;;;;;;;15.19;71.95;99760.47;4949513;28;20055;-90
2023/05/11 07:57:02;;;;;;;6.00;4.22;;;;;;;15.20;71.87;99752.25;4948798;28;20054;-90
2023/05/11 07:59:29;;;;;;;7.38;4.20;;;;;;;15.20;72.07;99749.56;4933357;28;20113;-90
2023/05/11 08:01:57;;;;;;;10.18;4.40;;;;;;;15.23;71.81;99750.25;4904220;28;20094;-88
2023/05/11 08:04:25;;;;;;;11.68;4.97;;;;;;;15.22;71.52;99745.91;4955996;28;20131;-90
2023/05/11 08:06:52;;;;;;;11.82;4.65;;;;;;;15.19;71.41;99755.13;4949565;28;20082;-90
2023/05/11 08:09:19;;;;;;;10.07;4.55;;;;;;;15.22;71.53;99751.28;4949275;28;20057;-90
2023/05/11 08:11:46;;;;;;;9.43;3.90;;;;;;;15.26;71.52;99749.91;4935500;28;20554;-91
2023/05/11 08:14:13;;;;;;;14.02;4.85;;;;;;;15.28;71.73;99759.44;4933934;28;20047;-89
2023/05/11 08:16:40;;;;;;;8.68;5.03;;;;;;;15.27;71.58;99755.09;4951297;28;20054;-90
2023/05/11 08:19:07;;;;;;;8.18;5.05;;;;;;;15.27;71.36;99763.13;4936936;28;20058;-91
2023/05/11 08:21:34;;;;;;;10.70;4.65;;;;;;;15.27;71.43;99763.13;4919871;28;20043;-91
2023/05/11 08:24:01;;;;;;;10.73;4.50;;;;;;;15.24;71.41;99750.09;4953677;28;20051;-91
2023/05/11 08:26:28;;;;;;;11.93;4.50;;;;;;;15.25;71.45;99757.09;4919596;28;20066;-90
2023/05/11 08:28:55;;;;;;;10.18;4.60;;;;;;;15.31;71.20;99766.28;4966030;28;20039;-89
2023/05/11 08:31:22;;;;;;;7.45;4.57;;;;;;;15.32;71.23;99757.28;4967333;28;20043;-90
2023/05/11 08:33:49;;;;;;;10.43;4.82;;;;;;;15.34;71.15;99761.47;4953059;28;20047;-89
2023/05/11 08:36:15;;;;;;;10.55;4.72;;;;;;;15.37;70.98;99760.28;4935048;28;20059;-90
2023/05/11 08:38:43;;;;;;;7.70;4.50;;;;;;;15.38;71.09;99757.44;4936341;28;20051;-90
2023/05/11 08:41:13;;;;;;;8.02;4.82;;;;;;;15.43;71.29;99756.09;4914916;28;20207;-90
2023/05/11 08:43:40;;;;;;;10.13;5.05;;;;;;;15.45;71.51;99756.78;4935151;28;20051;-91
2023/05/11 08:46:07;;;;;;;12.60;5.97;;;;;;;15.44;70.83;99757.75;4950640;28;20039;-90
2023/05/11 08:48:35;;;;;;;6.43;4.38;;;;;;;15.39;70.59;99758.25;4948075;28;20043;-91
2023/05/11 08:51:05;;;;;;;10.02;4.47;;;;;;;15.45;70.90;99767.47;4933200;28;20047;-90
2023/05/11 08:53:32;;;;;;;11.50;5.03;;;;;;;15.46;71.08;99761.94;4935523;28;20058;-90
2023/05/11 08:56:00;;;;;;;14.00;4.93;;;;;;;15.47;71.01;99766.28;4956421;28;20054;-90
2023/05/11 08:58:27;;;;;;;10.15;4.85;;;;;;;15.49;70.97;99758.91;4949275;28;20054;-90
2023/05/11 09:00:54;;;;;;;8.10;4.80;;;;;;;15.53;70.78;99768.28;4952376;28;20050;-89
2023/05/11 09:03:21;;;;;;;9.60;4.50;;;;;;;15.53;71.02;99767.47;4963039;28;20043;-89
2023/05/11 09:05:48;;;;;;;10.38;4.75;;;;;;;15.57;71.29;99771.44;4949350;28;20470;-90
2023/05/11 09:08:17;;;;;;;14.52;5.20;;;;;;;15.58;71.14;99767.78;4967823;28;20054;-89
2023/05/11 09:10:44;;;;;;;13.18;5.68;;;;;;;15.59;71.31;99759.56;4931290;28;20043;-90
2023/05/11 09:13:11;;;;;;;13.98;5.45;;;;;;;15.60;71.01;99765.78;4913722;28;20110;-90
2023/05/11 09:15:37;;;;;;;10.68;5.18;;;;;;;15.56;70.53;99759.09;4938530;28;20498;-90
2023/05/11 09:18:04;;;;;;;7.05;4.82;;;;;;;15.59;70.94;99767.59;4933611;28;20054;-90
2023/05/11 09:20:33;;;;;;;12.05;5.65;;;;;;;15.60;70.56;99765.78;4927212;28;20667;-90
2023/05/11 09:22:59;;;;;;;8.10;4.68;;;;;;;15.62;70.71;99763.75;4954896;28;20410;-89
2023/05/11 09:25:31;;;;;;;9.13;5.28;;;;;;;15.63;71.29;99765.44;4952112;28;20070;-90
2023/05/11 09:27:59;;;;;;;9.38;5.38;;;;;;;15.64;70.89;99767.09;4936410;28;20062;-90
2023/05/11 09:30:26;;;;;;;10.70;5.28;;;;;;;15.65;70.72;99763.44;4940834;28;20043;-90
2023/05/11 09:32:53;;;;;;;9.25;5.35;;;;;;;15.68;70.33;99772.97;4953201;28;20486;-89
2023/05/11 09:35:30;;;;;;;13.38;5.30;;;;;;;15.64;69.92;99764.41;4949722;28;20130;-88
2023/05/11 09:38:03;;;;;;;14.68;5.32;;;;;;;15.66;70.00;99772.28;4971321;28;20086;-89
2023/05/11 09:40:32;;;;;;;9.38;5.15;;;;;;;15.68;70.32;99763.09;4965072;28;20572;-90
2023/05/11 09:43:02;;;;;;;12.07;6.25;;;;;;;15.73;70.38;99773.31;4972765;28;20051;-90
2023/05/11 09:45:39;;;;;;;14.38;6.47;;;;;;;15.66;68.46;99769.59;4953451;28;20418;-91
2023/05/11 09:48:27;;;;;;;11.15;6.13;;;;;;;15.74;69.16;99773.13;4936457;28;20072;-89
2023/05/11 09:51:07;;;;;;;16.15;7.15;;;;;;;15.75;69.49;99774.00;4940054;28;20074;-90
2023/05/11 09:53:42;;;;;;;17.25;7.38;;;;;;;15.74;68.75;99769.63;4952022;28;20126;-90
2023/05/11 09:56:10;;;;;;;12.15;6.03;;;;;;;15.78;69.55;99768.28;4954990;28;20491;-90
2023/05/11 09:59:03;;;;;;;12.57;8.00;;;;;;;15.71;69.18;99767.28;4941045;28;20043;-89
2023/05/11 10:01:32;;;;;;;12.05;6.53;;;;;;;15.80;69.61;99777.81;4956460;28;20046;-89
2023/05/11 10:04:00;;;;;;;12.38;7.25;;;;;;;15.81;69.56;99771.44;4955962;28;20054;-89
2023/05/11 10:06:49;;;;;;;16.75;7.63;;;;;;;15.81;69.61;99766.09;4971809;28;20130;-90
2023/05/11 10:09:18;;;;;;;16.23;6.93;;;;;;;15.84;69.50;99767.59;4967126;28;20060;-88
2023/05/11 10:11:45;;;;;;;15.73;7.82;;;;;;;15.84;69.37;99767.59;4954292;28;20121;-90
2023/05/11 10:14:12;;;;;;;14.50;8.63;;;;;;;15.84;69.49;99762.22;4936850;28;20122;-89
2023/05/11 10:16:43;;;;;;;15.55;8.20;;;;;;;15.84;69.68;99760.38;4914233;28;20098;-90
2023/05/11 10:19:10;;;;;;;12.85;7.88;;;;;;;15.89;69.75;99767.06;4939558;28;20043;-89
2023/05/11 10:21:38;;;;;;;16.05;8.57;;;;;;;15.90;70.09;99763.38;4943448;28;20043;-90
2023/05/11 10:24:05;;;;;;;14.57;9.05;;;;;;;15.92;70.00;99764.03;4900352;28;20044;-89
2023/05/11 10:26:32;;;;;;;14.88;9.18;;;;;;;15.93;70.01;99763.06;4958883;28;20121;-89
2023/05/11 10:29:00;;;;;;;20.17;9.77;;;;;;;15.93;69.96;99769.25;4943615;28;20055;-90
2023/05/11 10:31:27;;;;;;;17.33;8.77;;;;;;;15.93;69.66;99763.88;4933869;28;20047;-89
2023/05/11 10:33:56;;;;;;;16.70;9.93;;;;;;;15.96;69.74;99762.72;4952076;28;20057;-90
2023/05/11 10:36:23;;;;;;;14.45;8.75;;;;;;;15.96;69.65;99758.19;4937031;28;20043;-89
2023/05/11 10:38:50;;;;;;;16.95;9.95;;;;;;;15.97;69.86;99759.84;4953057;28;20094;-90
2023/05/11 10:41:45;;;;;;;17.85;10.10;;;;;;;15.89;69.74;99753.69;4956297;28;20051;-89
2023/05/11 10:44:42;;;;;;;12.98;9.13;;;;;;;15.95;69.88;99756.53;4945930;28;20043;-89
2023/05/11 10:47:24;;;;;;;13.60;8.27;;;;;;;15.92;70.04;99759.53;4951416;28;20073;-89
2023/05/11 10:50:31;;;;;;;13.38;8.68;;;;;;;15.88;69.97;99752.84;4956411;28;20079;-90
2023/05/11 10:53:14;;;;;;;16.45;8.70;;;;;;;15.92;69.83;99747.97;4925543;29;20122;-89
2023/05/11 10:56:00;;;;;;;14.82;9.23;;;;;;;15.96;70.15;99755.50;4947921;28;20051;-89
2023/05/11 10:58:36;;;;;;;15.65;8.85;;;;;;;15.97;70.20;99751.81;4917257;28;20131;-90
2023/05/11 11:01:22;;;;;;;15.73;8.82;;;;;;;15.89;70.46;99754.53;4932047;28;20474;-89
2023/05/11 11:03:57;;;;;;;21.67;9.98;;;;;;;15.90;70.98;99742.81;4967219;28;20053;-89
2023/05/11 11:06:24;;;;;;;17.83;9.88;;;;;;;15.96;70.67;99738.59;4966568;28;20434;-89
2023/05/11 11:08:56;;;;;;;15.32;10.68;;;;;;;15.95;70.22;99748.50;4941082;28;20059;-90
2023/05/11 11:11:32;;;;;;;22.40;10.17;;;;;;;15.96;70.58;99747.47;4936663;28;21079;-89
2023/05/11 11:14:02;;;;;;;22.77;9.48;;;;;;;16.02;70.79;99749.44;4944703;28;20993;-89
2023/05/11 11:16:29;;;;;;;19.25;11.02;;;;;;;16.03;70.66;99745.78;4902640;28;20047;-89
2023/05/11 11:19:30;;;;;;;17.15;10.40;;;;;;;15.97;70.78;99743.78;4935263;28;20047;-90
2023/05/11 11:21:59;;;;;;;15.13;10.18;;;;;;;16.06;70.87;99744.59;4936384;28;20403;-90
2023/05/11 11:24:37;;;;;;;16.13;10.50;;;;;;;16.03;70.56;99739.59;4948172;28;20074;-90
2023/05/11 11:27:05;;;;;;;22.17;10.80;;;;;;;16.11;70.65;99744.09;4946286;28;20043;-90
2023/05/11 11:29:33;;;;;;;21.35;11.27;;;;;;;16.12;70.88;99740.38;4933040;28;20207;-91
2023/05/11 11:32:18;;;;;;;17.67;10.10;;;;;;;16.03;71.61;99732.38;4937645;28;20048;-91
2023/05/11 11:34:46;;;;;;;14.90;10.18;;;;;;;16.13;70.89;99736.69;4931744;28;20063;-89
2023/05/11 11:37:13;;;;;;;23.95;11.55;;;;;;;16.12;70.81;99733.16;4954876;28;22367;-90
2023/05/11 11:39:40;;;;;;;17.48;10.30;;;;;;;16.11;70.52;99728.00;4969011;28;20047;-90